Time;durP1;ratioP1;P1;durP2;ratioP2;P2;SDS_P1;SDS_P2;PMS_P1;PMS_P2;Temp;Humidity;BMP_temperature;BMP_pressure;BME280_temperature;BME280_humidity;BME280_pressure;Samples;Min_cycle;Max_cycle;Signal;HPM_P1;HPM_P2
2023/03/08 00:00:40;;;;;;;10.05;4.80;;;2.80;94.10;;;;;;5113313;28;20032;-84
2023/03/08 00:03:06;;;;;;;8.25;4.70;;;2.80;94.10;;;;;;5114806;28;20039;-84
2023/03/08 00:05:41;;;;;;;8.60;4.78;;;2.80;94.20;;;;;;5114475;28;20036;-82
2023/03/08 00:08:07;;;;;;;11.90;4.80;;;2.80;94.00;;;;;;5114401;28;20024;-84
2023/03/08 00:10:33;;;;;;;10.05;4.82;;;2.80;93.90;;;;;;5114366;28;20035;-84
2023/03/08 00:15:51;;;;;;;11.98;4.63;;;2.60;93.80;;;;;;5114513;28;20051;-82
2023/03/08 00:18:22;;;;;;;8.35;4.03;;;2.60;93.90;;;;;;5114406;28;20016;-81
2023/03/08 00:21:01;;;;;;;10.50;4.30;;;2.60;93.90;;;;;;5114403;28;20103;-84
2023/03/08 00:23:27;;;;;;;12.07;4.82;;;2.60;94.00;;;;;;5114301;28;20024;-84
2023/03/08 00:25:53;;;;;;;9.07;4.35;;;2.70;94.00;;;;;;5113082;28;20058;-84
2023/03/08 00:28:19;;;;;;;9.05;4.15;;;2.70;94.00;;;;;;5114041;28;20057;-84
2023/03/08 00:31:01;;;;;;;9.93;4.90;;;2.70;94.00;;;;;;5113159;28;20074;-84
2023/03/08 00:33:27;;;;;;;9.00;4.88;;;2.70;94.00;;;;;;5114063;28;20020;-84
2023/03/08 00:36:02;;;;;;;10.98;4.85;;;2.70;94.00;;;;;;5113034;28;20087;-84
2023/03/08 00:38:31;;;;;;;12.68;5.63;;;2.70;94.00;;;;;;5112837;28;20069;-82
2023/03/08 00:41:00;;;;;;;10.82;4.90;;;2.70;93.90;;;;;;5112987;28;20031;-82
2023/03/08 00:43:27;;;;;;;9.93;5.03;;;2.70;93.80;;;;;;5112837;28;20031;-84
2023/03/08 00:45:53;;;;;;;9.88;5.07;;;2.60;93.80;;;;;;5113767;28;20045;-85
2023/03/08 00:48:20;;;;;;;14.35;5.50;;;2.60;93.90;;;;;;5112768;28;20036;-84
2023/03/08 00:50:46;;;;;;;13.25;5.57;;;2.60;93.90;;;;;;5112849;28;20039;-82
2023/03/08 00:53:12;;;;;;;10.07;5.22;;;2.70;93.90;;;;;;5112818;28;20048;-82
2023/03/08 00:55:38;;;;;;;12.70;5.10;;;2.70;93.80;;;;;;5113654;28;20016;-82
2023/03/08 00:58:04;;;;;;;10.88;5.55;;;2.70;93.70;;;;;;5113675;28;20021;-82
2023/03/08 01:00:30;;;;;;;8.93;4.75;;;2.60;93.70;;;;;;5113618;28;20021;-84
2023/03/08 01:03:05;;;;;;;10.95;5.03;;;2.60;93.80;;;;;;5112583;28;20035;-82
2023/03/08 01:06:16;;;;;;;11.45;5.43;;;2.50;93.50;;;;;;5112220;28;20032;-82
2023/03/08 01:09:19;;;;;;;10.30;4.72;;;2.50;93.70;;;;;;5014378;28;20038;-86
2023/03/08 01:11:45;;;;;;;14.55;5.93;;;2.40;93.70;;;;;;5109579;28;20110;-82
2023/03/08 01:14:11;;;;;;;11.95;5.65;;;2.50;93.80;;;;;;5116313;28;20024;-82
2023/03/08 01:16:37;;;;;;;15.23;5.60;;;2.40;93.90;;;;;;5117754;28;20074;-82
2023/03/08 01:19:07;;;;;;;11.45;5.70;;;2.40;93.80;;;;;;5117817;28;20027;-82
2023/03/08 01:21:33;;;;;;;12.88;5.68;;;2.40;93.90;;;;;;5117628;28;20027;-83
2023/03/08 01:24:01;;;;;;;12.90;6.30;;;2.30;93.90;;;;;;5117764;28;20024;-82
2023/03/08 01:26:29;;;;;;;13.40;5.90;;;2.30;94.00;;;;;;5116560;28;20032;-82
2023/03/08 01:28:56;;;;;;;12.70;6.32;;;2.20;94.20;;;;;;5117541;28;20039;-82
2023/03/08 01:31:29;;;;;;;12.60;6.50;;;2.20;94.20;;;;;;5117457;28;20050;-82
2023/03/08 01:33:56;;;;;;;11.98;5.55;;;2.20;94.30;;;;;;5117369;28;20024;-84
2023/03/08 01:36:24;;;;;;;11.45;6.47;;;2.20;94.40;;;;;;5117319;28;20040;-84
2023/03/08 01:38:50;;;;;;;13.52;5.97;;;2.10;94.30;;;;;;5117006;28;20072;-85
2023/03/08 01:41:26;;;;;;;12.25;5.95;;;2.10;94.30;;;;;;5117240;28;20028;-84
2023/03/08 01:43:52;;;;;;;13.45;6.07;;;2.10;94.40;;;;;;5117256;28;20028;-84
2023/03/08 01:46:36;;;;;;;16.33;6.90;;;2.00;94.60;;;;;;5117309;28;20024;-85
2023/03/08 01:49:16;;;;;;;13.30;6.50;;;2.00;94.70;;;;;;5117120;28;20053;-84
2023/03/08 01:51:42;;;;;;;14.60;6.93;;;2.10;94.80;;;;;;5116146;28;20048;-84
2023/03/08 01:54:36;;;;;;;16.10;7.60;;;2.00;94.80;;;;;;5117093;28;20084;-85
2023/03/08 01:57:07;;;;;;;16.27;7.15;;;2.10;94.70;;;;;;5117177;28;20032;-85
2023/03/08 01:59:34;;;;;;;18.67;7.57;;;2.10;94.70;;;;;;5116965;28;20024;-85
2023/03/08 02:02:01;;;;;;;15.85;6.93;;;2.10;94.70;;;;;;5116815;28;20049;-84
2023/03/08 02:04:27;;;;;;;14.93;7.22;;;2.10;94.90;;;;;;5115859;28;20039;-82
2023/03/08 02:06:55;;;;;;;15.40;6.97;;;2.10;94.70;;;;;;5115806;28;20020;-82
2023/03/08 02:09:22;;;;;;;12.77;6.78;;;2.00;94.70;;;;;;5115802;28;20032;-83
2023/03/08 02:11:48;;;;;;;17.65;6.90;;;2.00;94.60;;;;;;5116854;28;20027;-84
2023/03/08 02:14:14;;;;;;;14.75;6.50;;;1.90;94.60;;;;;;5115513;28;20060;-85
2023/03/08 02:16:39;;;;;;;13.75;6.15;;;1.90;94.80;;;;;;5115722;28;20046;-85
2023/03/08 02:19:34;;;;;;;15.05;7.45;;;1.80;95.10;;;;;;5116613;28;20024;-85
2023/03/08 02:22:08;;;;;;;15.55;7.03;;;1.80;95.50;;;;;;5116476;28;20051;-85
2023/03/08 02:24:33;;;;;;;20.35;8.50;;;1.80;95.80;;;;;;5115594;28;20028;-82
2023/03/08 02:27:03;;;;;;;17.35;8.10;;;1.90;96.00;;;;;;5116405;28;20020;-84
2023/03/08 02:29:29;;;;;;;19.05;8.65;;;1.90;95.90;;;;;;5116389;28;20055;-85
2023/03/08 02:31:55;;;;;;;19.02;8.35;;;1.90;95.90;;;;;;5116424;28;20024;-85
2023/03/08 02:34:20;;;;;;;19.88;8.18;;;1.90;95.90;;;;;;5115224;28;20039;-85
2023/03/08 02:36:46;;;;;;;20.17;8.98;;;2.00;95.90;;;;;;5116313;28;20028;-85
2023/03/08 02:39:11;;;;;;;18.20;7.32;;;2.00;95.80;;;;;;5115054;28;20052;-85
2023/03/08 02:41:37;;;;;;;20.45;9.25;;;2.00;95.70;;;;;;5116113;28;20020;-84
2023/03/08 02:44:03;;;;;;;19.58;8.77;;;2.00;95.80;;;;;;5116186;28;20020;-82
2023/03/08 02:46:30;;;;;;;18.73;9.00;;;2.10;95.80;;;;;;5115187;28;20031;-82
2023/03/08 02:48:55;;;;;;;20.50;8.60;;;2.10;95.80;;;;;;5115212;28;20082;-82
2023/03/08 02:51:21;;;;;;;21.23;9.00;;;2.20;96.10;;;;;;5115928;28;20039;-84
2023/03/08 02:53:46;;;;;;;20.52;8.77;;;2.20;96.30;;;;;;5115868;28;20044;-84
2023/03/08 02:56:12;;;;;;;20.67;9.80;;;2.20;96.60;;;;;;5114790;28;20378;-85
2023/03/08 02:58:38;;;;;;;23.77;9.80;;;2.30;96.50;;;;;;5115807;28;20028;-84
2023/03/08 03:01:10;;;;;;;23.10;8.82;;;2.30;96.20;;;;;;5114817;28;20019;-84
2023/03/08 03:03:35;;;;;;;20.00;9.18;;;2.40;96.10;;;;;;5115752;28;20020;-85
2023/03/08 03:06:01;;;;;;;24.73;9.75;;;2.40;96.10;;;;;;5114880;28;20038;-84
2023/03/08 03:08:29;;;;;;;22.77;10.35;;;2.50;96.10;;;;;;5115535;28;20032;-85
2023/03/08 03:10:55;;;;;;;21.48;9.52;;;2.50;96.30;;;;;;5114522;28;20395;-82
2023/03/08 03:13:23;;;;;;;21.38;8.93;;;2.40;96.40;;;;;;5114487;28;20020;-82
2023/03/08 03:15:53;;;;;;;26.60;9.90;;;2.40;96.40;;;;;;5114448;28;20036;-82
2023/03/08 03:18:19;;;;;;;21.42;9.63;;;2.50;96.50;;;;;;5114488;28;20036;-82
2023/03/08 03:20:45;;;;;;;24.33;9.27;;;2.40;96.80;;;;;;5115429;28;20395;-82
2023/03/08 03:23:17;;;;;;;23.13;10.23;;;2.40;96.80;;;;;;5115330;28;20081;-82
2023/03/08 03:25:45;;;;;;;23.02;9.23;;;2.40;96.90;;;;;;5115437;28;20048;-82
2023/03/08 03:28:11;;;;;;;29.80;10.75;;;2.50;96.60;;;;;;5114161;28;20028;-84
2023/03/08 03:30:38;;;;;;;27.48;11.48;;;2.50;96.70;;;;;;5115331;28;20376;-84
2023/03/08 03:33:04;;;;;;;25.45;10.55;;;2.50;96.60;;;;;;5115062;28;20032;-84
2023/03/08 03:35:29;;;;;;;27.38;10.15;;;2.50;96.60;;;;;;5114675;28;20028;-84
2023/03/08 03:37:55;;;;;;;25.65;9.75;;;2.60;96.60;;;;;;5113709;28;20020;-84
2023/03/08 03:40:21;;;;;;;26.48;10.43;;;2.60;96.60;;;;;;5113975;28;20047;-84
2023/03/08 03:42:48;;;;;;;33.72;12.00;;;2.60;96.70;;;;;;5115044;28;20024;-84
2023/03/08 03:45:14;;;;;;;33.38;10.82;;;2.70;96.60;;;;;;5114903;28;20036;-84
2023/03/08 03:47:39;;;;;;;26.80;10.13;;;2.70;96.50;;;;;;5114784;28;20032;-84
2023/03/08 03:50:05;;;;;;;28.40;10.85;;;2.70;96.50;;;;;;5113784;28;20467;-84
2023/03/08 03:52:31;;;;;;;29.00;10.98;;;2.70;96.50;;;;;;5096697;28;20062;-85
2023/03/08 03:54:57;;;;;;;30.23;11.27;;;2.70;96.40;;;;;;5114684;28;20044;-84
2023/03/08 03:57:22;;;;;;;28.23;10.88;;;2.80;96.40;;;;;;5113587;28;20043;-84
2023/03/08 03:59:48;;;;;;;30.63;10.80;;;2.80;96.30;;;;;;5114582;28;20016;-84
2023/03/08 04:02:13;;;;;;;26.17;10.07;;;2.80;96.30;;;;;;5114674;28;20460;-84
2023/03/08 04:04:39;;;;;;;31.15;10.55;;;2.80;96.30;;;;;;5114549;28;20024;-84
2023/03/08 04:07:05;;;;;;;28.15;11.60;;;2.90;96.10;;;;;;5114468;28;20093;-84
2023/03/08 04:09:30;;;;;;;24.02;10.05;;;2.80;96.10;;;;;;5114336;28;20032;-84
2023/03/08 04:12:01;;;;;;;26.42;10.15;;;2.80;96.10;;;;;;5114422;28;20024;-84
2023/03/08 04:14:26;;;;;;;28.02;10.88;;;2.80;96.10;;;;;;5114343;28;20066;-84
2023/03/08 04:16:52;;;;;;;27.45;10.57;;;2.80;96.10;;;;;;5114238;28;20028;-84
2023/03/08 04:19:18;;;;;;;27.10;10.50;;;2.80;96.10;;;;;;5113364;28;20028;-84
2023/03/08 04:21:43;;;;;;;30.15;10.00;;;2.90;96.20;;;;;;5114168;28;20020;-84
2023/03/08 04:24:09;;;;;;;26.52;9.75;;;2.90;96.10;;;;;;5114173;28;20051;-84
2023/03/08 04:26:35;;;;;;;26.02;10.13;;;2.90;96.00;;;;;;5114123;28;20059;-84
2023/03/08 04:29:04;;;;;;;21.38;10.23;;;2.90;96.10;;;;;;5114060;28;20027;-84
2023/03/08 04:31:31;;;;;;;24.52;10.48;;;2.90;96.00;;;;;;5114232;28;20024;-84
2023/03/08 04:33:57;;;;;;;29.15;11.32;;;2.90;96.00;;;;;;5112987;28;20024;-84
2023/03/08 04:36:23;;;;;;;23.20;10.38;;;2.90;95.90;;;;;;5113987;28;20027;-84
2023/03/08 04:38:49;;;;;;;23.58;10.32;;;2.90;96.00;;;;;;5112823;28;20044;-84
2023/03/08 04:41:16;;;;;;;23.25;9.23;;;2.80;96.00;;;;;;5113042;28;20020;-84
2023/03/08 04:43:49;;;;;;;21.92;9.70;;;2.80;96.00;;;;;;5112832;28;20031;-84
2023/03/08 04:46:16;;;;;;;23.75;9.65;;;2.90;96.20;;;;;;5113833;28;20024;-84
2023/03/08 04:48:42;;;;;;;18.92;9.25;;;2.90;96.10;;;;;;5112992;28;20027;-81
2023/03/08 04:51:11;;;;;;;22.92;10.25;;;2.80;96.00;;;;;;5113775;28;20028;-84
2023/03/08 04:53:37;;;;;;;19.58;8.80;;;2.90;96.10;;;;;;5113671;28;20070;-84
2023/03/08 04:56:04;;;;;;;21.65;9.00;;;2.90;96.10;;;;;;5113675;28;20454;-84
2023/03/08 04:58:31;;;;;;;22.90;9.40;;;2.90;96.10;;;;;;5112717;28;20079;-84
2023/03/08 05:00:58;;;;;;;22.70;9.40;;;3.00;96.10;;;;;;5112672;28;20028;-84
2023/03/08 05:03:24;;;;;;;23.52;9.30;;;2.90;95.90;;;;;;5113600;28;20031;-84
2023/03/08 05:05:52;;;;;;;22.05;9.50;;;3.00;96.00;;;;;;5113550;28;20475;-84
2023/03/08 05:08:18;;;;;;;20.45;9.57;;;3.00;96.00;;;;;;5113512;28;20020;-84
2023/03/08 05:10:59;;;;;;;25.30;9.38;;;3.10;96.00;;;;;;5113532;28;20039;-84
2023/03/08 05:13:26;;;;;;;21.98;9.25;;;3.00;95.90;;;;;;5112626;28;20020;-84
2023/03/08 05:15:52;;;;;;;19.85;9.07;;;3.10;95.80;;;;;;5113516;28;20039;-84
2023/03/08 05:18:17;;;;;;;22.75;9.32;;;3.00;95.70;;;;;;5113480;28;20020;-83
2023/03/08 05:20:43;;;;;;;20.42;9.73;;;3.00;95.80;;;;;;5112517;28;20048;-84
2023/03/08 05:23:10;;;;;;;20.08;9.18;;;3.00;95.90;;;;;;5113391;28;20032;-84
2023/03/08 05:25:42;;;;;;;22.30;8.73;;;2.90;95.90;;;;;;5113413;28;20020;-83
2023/03/08 05:28:08;;;;;;;26.67;11.15;;;2.90;95.90;;;;;;5113453;28;20039;-84
2023/03/08 05:30:33;;;;;;;22.70;8.95;;;2.80;96.10;;;;;;5113457;28;20032;-83
2023/03/08 05:32:59;;;;;;;21.20;8.70;;;2.80;96.20;;;;;;5112224;28;20062;-84
2023/03/08 05:35:24;;;;;;;18.65;7.95;;;2.70;96.30;;;;;;5113459;28;20028;-84
2023/03/08 05:37:50;;;;;;;21.55;8.95;;;2.70;96.50;;;;;;5113149;28;20088;-85
2023/03/08 05:40:16;;;;;;;21.15;8.90;;;2.70;96.50;;;;;;5113403;28;20039;-84
2023/03/08 05:42:41;;;;;;;20.30;8.77;;;2.70;96.70;;;;;;5113197;28;20074;-84
2023/03/08 05:45:07;;;;;;;22.90;8.73;;;2.60;96.80;;;;;;5113260;28;20050;-84
2023/03/08 05:47:33;;;;;;;21.63;9.65;;;2.60;97.00;;;;;;5113189;28;20024;-84
2023/03/08 05:49:59;;;;;;;19.27;8.55;;;2.60;97.00;;;;;;5113140;28;20031;-83
2023/03/08 05:52:24;;;;;;;20.13;8.43;;;2.60;97.00;;;;;;5112386;28;20367;-83
2023/03/08 05:54:50;;;;;;;21.65;9.18;;;2.60;97.00;;;;;;5113143;28;20040;-83
2023/03/08 05:57:16;;;;;;;24.35;9.48;;;2.60;97.10;;;;;;5113267;28;20024;-84
2023/03/08 05:59:41;;;;;;;21.10;9.15;;;2.60;97.10;;;;;;5113827;28;20031;-84
2023/03/08 06:02:07;;;;;;;25.42;10.32;;;2.60;97.30;;;;;;5116039;28;20024;-84
2023/03/08 06:04:32;;;;;;;28.75;11.05;;;2.60;97.20;;;;;;5098926;28;20077;-84
2023/03/08 06:06:58;;;;;;;24.45;10.13;;;2.70;97.30;;;;;;5116829;28;20048;-84
2023/03/08 06:09:24;;;;;;;25.95;10.43;;;2.60;97.30;;;;;;5116697;28;20032;-83
2023/03/08 06:11:49;;;;;;;27.08;10.57;;;2.70;97.30;;;;;;5116640;28;20089;-83
2023/03/08 06:14:15;;;;;;;27.13;10.73;;;2.70;97.30;;;;;;5116599;28;20032;-83
2023/03/08 06:16:40;;;;;;;24.60;10.43;;;2.70;97.40;;;;;;5115608;28;20029;-83
2023/03/08 06:19:06;;;;;;;26.02;11.40;;;2.70;97.50;;;;;;5116623;28;20032;-83
2023/03/08 06:21:32;;;;;;;27.08;9.35;;;2.70;97.40;;;;;;5115788;28;20088;-83
2023/03/08 06:23:57;;;;;;;31.45;10.93;;;2.60;97.60;;;;;;5116439;28;20032;-83
2023/03/08 06:26:23;;;;;;;27.05;11.05;;;2.60;97.60;;;;;;5116550;28;20083;-84
2023/03/08 06:28:48;;;;;;;24.67;9.63;;;2.70;97.50;;;;;;5115404;28;20028;-84
2023/03/08 06:31:16;;;;;;;28.85;11.45;;;2.70;97.50;;;;;;5116332;28;20028;-83
2023/03/08 06:33:42;;;;;;;27.88;11.90;;;2.70;97.50;;;;;;5115202;28;20020;-83
2023/03/08 06:36:15;;;;;;;25.92;10.13;;;2.70;97.50;;;;;;5116259;28;20031;-84
2023/03/08 06:38:41;;;;;;;32.60;11.80;;;2.70;97.60;;;;;;5116081;28;20044;-84
2023/03/08 06:41:08;;;;;;;24.02;9.40;;;2.70;97.70;;;;;;5115204;28;20498;-84
2023/03/08 06:43:35;;;;;;;22.33;9.57;;;2.70;97.70;;;;;;5116109;28;20020;-83
2023/03/08 06:46:09;;;;;;;28.27;10.43;;;2.60;97.90;;;;;;5116073;28;20024;-84
2023/03/08 06:48:36;;;;;;;28.30;9.95;;;2.60;98.30;;;;;;5116043;28;20024;-84
2023/03/08 06:51:02;;;;;;;26.27;10.27;;;2.60;97.90;;;;;;5115937;28;20028;-83
2023/03/08 06:53:28;;;;;;;23.05;9.20;;;2.60;97.90;;;;;;5115874;28;20028;-84
2023/03/08 06:55:54;;;;;;;19.55;7.38;;;2.60;97.80;;;;;;5115886;28;20493;-84
2023/03/08 06:58:20;;;;;;;19.27;7.45;;;2.50;97.70;;;;;;5115799;28;20021;-84
2023/03/08 07:00:45;;;;;;;20.02;7.53;;;2.50;97.80;;;;;;5115805;28;20558;-84
2023/03/08 07:03:12;;;;;;;16.88;5.93;;;2.50;98.00;;;;;;5115711;28;20028;-81
2023/03/08 07:05:38;;;;;;;17.80;7.88;;;2.50;97.90;;;;;;5115673;28;20028;-81
2023/03/08 07:08:04;;;;;;;17.70;7.25;;;2.50;97.80;;;;;;5114671;28;20032;-82
2023/03/08 07:10:30;;;;;;;14.75;6.38;;;2.40;97.90;;;;;;5114843;28;20047;-82
2023/03/08 07:12:56;;;;;;;22.08;7.45;;;2.40;97.90;;;;;;5115284;28;20047;-81
2023/03/08 07:15:23;;;;;;;14.30;5.97;;;2.50;97.90;;;;;;5115469;28;20020;-82
2023/03/08 07:17:51;;;;;;;16.80;7.15;;;2.40;97.90;;;;;;5115398;28;20016;-81
2023/03/08 07:20:19;;;;;;;13.82;6.53;;;2.40;97.90;;;;;;5114438;28;20016;-82
2023/03/08 07:22:48;;;;;;;13.20;5.85;;;2.40;98.00;;;;;;5115327;28;20039;-82
2023/03/08 07:25:16;;;;;;;16.73;6.30;;;2.40;98.10;;;;;;5115289;28;20426;-81
2023/03/08 07:27:45;;;;;;;14.60;6.55;;;2.40;98.10;;;;;;5115117;28;20040;-82
2023/03/08 07:30:32;;;;;;;13.35;6.45;;;2.40;98.20;;;;;;5115288;28;20104;-80
2023/03/08 07:32:57;;;;;;;15.65;6.30;;;2.40;98.30;;;;;;5113733;28;20023;-80
2023/03/08 07:35:23;;;;;;;12.02;5.13;;;2.40;98.20;;;;;;5097070;28;20038;-78
2023/03/08 07:37:49;;;;;;;16.83;6.60;;;2.40;98.10;;;;;;5115000;28;20050;-79
2023/03/08 07:40:16;;;;;;;17.85;6.65;;;2.40;98.10;;;;;;5114929;28;20039;-78
2023/03/08 07:42:42;;;;;;;16.50;6.07;;;2.40;98.00;;;;;;5114941;28;20020;-77
2023/03/08 07:45:10;;;;;;;8.00;3.97;;;2.40;97.90;;;;;;5113859;28;20016;-77
2023/03/08 07:47:36;;;;;;;12.93;5.55;;;2.40;98.00;;;;;;5113882;28;20051;-78
2023/03/08 07:50:02;;;;;;;13.80;5.07;;;2.30;98.20;;;;;;5114727;28;20024;-78
2023/03/08 07:52:29;;;;;;;9.70;4.95;;;2.40;98.20;;;;;;5113691;28;20020;-78
2023/03/08 07:55:01;;;;;;;10.02;4.88;;;2.40;98.20;;;;;;5114623;28;20085;-80
2023/03/08 07:57:27;;;;;;;;;;;2.30;98.30;;;;;;5115108;28;20046;-80
2023/03/08 07:59:52;;;;;;;14.32;5.97;;;2.30;98.30;;;;;;5114555;28;19904;-81
2023/03/08 08:02:18;;;;;;;9.48;4.65;;;2.30;98.40;;;;;;5113631;28;20031;-81
2023/03/08 08:04:44;;;;;;;12.38;4.63;;;2.30;98.40;;;;;;5113498;28;20028;-81
2023/03/08 08:07:15;;;;;;;14.55;5.88;;;2.30;98.30;;;;;;5113504;28;20032;-81
2023/03/08 08:09:40;;;;;;;11.48;4.72;;;2.40;98.30;;;;;;5113327;28;20012;-81
2023/03/08 08:12:06;;;;;;;12.65;5.00;;;2.30;98.20;;;;;;5114351;28;20024;-80
2023/03/08 08:14:32;;;;;;;13.45;5.47;;;2.30;98.20;;;;;;5113307;28;20060;-80
2023/03/08 08:16:58;;;;;;;8.85;3.67;;;2.20;98.40;;;;;;5113334;28;20024;-81
2023/03/08 08:19:24;;;;;;;14.43;5.30;;;2.30;98.40;;;;;;5114207;28;20035;-80
2023/03/08 08:21:52;;;;;;;11.68;4.65;;;2.20;98.50;;;;;;5113110;28;20092;-80
2023/03/08 08:24:18;;;;;;;8.95;4.38;;;2.20;98.50;;;;;;5113062;28;20036;-80
2023/03/08 08:26:43;;;;;;;11.65;5.13;;;2.30;98.40;;;;;;5114059;28;20024;-79
2023/03/08 08:29:09;;;;;;;11.23;4.53;;;2.30;98.40;;;;;;5114016;28;20032;-80
2023/03/08 08:31:35;;;;;;;8.77;3.28;;;2.40;98.20;;;;;;5113986;28;20028;-79
2023/03/08 08:34:20;;;;;;;9.48;3.92;;;2.40;98.20;;;;;;5112834;28;20028;-78
2023/03/08 08:40:17;;;;;;;8.60;3.97;;;2.40;98.10;;;;;;5112411;28;20051;-81
2023/03/08 08:42:52;;;;;;;12.70;4.78;;;2.40;97.90;;;;;;5113854;28;20027;-81
2023/03/08 08:45:17;;;;;;;10.98;4.10;;;2.40;98.10;;;;;;5114032;28;20035;-81
2023/03/08 08:47:48;;;;;;;10.52;4.28;;;2.40;98.20;;;;;;5113770;28;20083;-81
2023/03/08 08:50:14;;;;;;;10.88;4.30;;;2.50;98.10;;;;;;5112899;28;20349;-82
2023/03/08 08:52:40;;;;;;;10.98;4.50;;;2.50;97.90;;;;;;5113601;28;20031;-77
2023/03/08 08:55:06;;;;;;;7.97;3.55;;;2.50;97.90;;;;;;5113675;28;20035;-81
2023/03/08 08:57:33;;;;;;;9.85;4.03;;;2.50;97.90;;;;;;5113831;28;20012;-81
2023/03/08 08:59:59;;;;;;;10.70;4.53;;;2.50;97.90;;;;;;5113660;28;20052;-80
2023/03/08 09:02:25;;;;;;;13.50;5.78;;;2.50;97.80;;;;;;5113623;28;20017;-82
2023/03/08 09:04:53;;;;;;;16.30;5.90;;;2.50;97.80;;;;;;5113507;28;20032;-80
2023/03/08 09:07:18;;;;;;;18.33;7.50;;;2.50;97.80;;;;;;5112689;28;20095;-82
2023/03/08 09:09:47;;;;;;;15.57;5.95;;;2.60;97.70;;;;;;5112496;28;20047;-81
2023/03/08 09:12:13;;;;;;;14.43;6.00;;;2.60;97.70;;;;;;5112450;28;20032;-81
2023/03/08 09:14:38;;;;;;;16.55;6.13;;;2.60;97.70;;;;;;5112368;28;20532;-81
2023/03/08 09:17:07;;;;;;;14.23;6.15;;;2.60;97.70;;;;;;5112454;28;20043;-79
2023/03/08 09:19:35;;;;;;;14.52;6.20;;;2.60;97.70;;;;;;5113365;28;20036;-81
2023/03/08 09:22:00;;;;;;;15.35;5.90;;;2.70;97.50;;;;;;5113476;28;20017;-80
2023/03/08 09:24:26;;;;;;;12.50;5.57;;;2.70;97.40;;;;;;5112436;28;20035;-80
2023/03/08 09:26:55;;;;;;;12.93;5.60;;;2.60;97.40;;;;;;5113319;28;20115;-79
2023/03/08 09:29:21;;;;;;;12.95;5.95;;;2.60;97.40;;;;;;5112293;28;20038;-81
2023/03/08 09:31:47;;;;;;;13.98;5.30;;;2.60;97.40;;;;;;5113305;28;20048;-79
2023/03/08 09:34:16;;;;;;;12.73;5.00;;;2.70;97.50;;;;;;5114186;28;20031;-81
2023/03/08 09:36:42;;;;;;;12.18;5.30;;;2.60;97.90;;;;;;5117379;28;20069;-81
2023/03/08 09:39:12;;;;;;;11.57;5.15;;;2.70;97.50;;;;;;5117133;28;20103;-79
2023/03/08 09:41:43;;;;;;;11.07;5.45;;;2.70;97.50;;;;;;5117322;28;20027;-79
2023/03/08 09:44:48;;;;;;;15.50;5.57;;;2.70;97.50;;;;;;5116291;28;20028;-79
2023/03/08 09:47:20;;;;;;;13.77;5.53;;;2.70;97.40;;;;;;5117224;28;20031;-80
2023/03/08 09:49:52;;;;;;;12.18;5.35;;;2.70;97.50;;;;;;5117221;28;20028;-79
2023/03/08 09:52:34;;;;;;;14.40;6.03;;;2.70;97.30;;;;;;5117150;28;20030;-79
2023/03/08 09:55:04;;;;;;;16.38;6.60;;;2.70;97.50;;;;;;5116167;28;20039;-81
2023/03/08 09:57:39;;;;;;;15.82;6.43;;;2.70;97.60;;;;;;5116957;28;20020;-80
2023/03/08 10:00:17;;;;;;;16.92;5.93;;;2.80;97.50;;;;;;5116966;28;20016;-80
2023/03/08 10:03:22;;;;;;;16.50;6.28;;;2.80;97.50;;;;;;5116829;28;20024;-78
2023/03/08 10:06:13;;;;;;;18.27;7.15;;;2.80;97.40;;;;;;5116865;28;20072;-78
2023/03/08 10:09:18;;;;;;;17.17;7.32;;;2.80;97.30;;;;;;5115695;28;20050;-78
2023/03/08 10:11:56;;;;;;;14.43;6.07;;;2.80;97.30;;;;;;5116843;28;20020;-77
2023/03/08 10:14:33;;;;;;;13.00;5.80;;;2.80;97.30;;;;;;5116648;28;20031;-76
2023/03/08 10:17:16;;;;;;;13.13;5.78;;;2.90;97.20;;;;;;5116770;28;20055;-80
2023/03/08 10:20:23;;;;;;;13.20;4.88;;;2.90;97.40;;;;;;5116585;28;20019;-78
2023/03/08 10:22:56;;;;;;;12.40;4.97;;;2.90;97.60;;;;;;5071834;28;20043;-79
2023/03/08 10:25:30;;;;;;;10.32;5.05;;;3.00;97.70;;;;;;5115525;28;20051;-77
2023/03/08 10:27:58;;;;;;;12.95;5.38;;;3.00;97.70;;;;;;5116425;28;20016;-77
2023/03/08 10:30:39;;;;;;;13.27;6.22;;;3.10;97.60;;;;;;5115470;28;20061;-78
2023/03/08 10:33:09;;;;;;;9.60;4.80;;;3.20;97.80;;;;;;5115299;28;20052;-78
2023/03/08 10:35:51;;;;;;;12.60;5.10;;;3.20;97.50;;;;;;5115261;28;20040;-78
2023/03/08 10:38:20;;;;;;;13.88;4.78;;;3.30;97.60;;;;;;5116062;28;20548;-77
2023/03/08 10:40:46;;;;;;;11.00;5.25;;;3.40;97.50;;;;;;5116306;28;20031;-77
2023/03/08 10:43:31;;;;;;;11.15;4.55;;;3.40;97.30;;;;;;5116084;28;20035;-77
2023/03/08 10:46:03;;;;;;;11.48;5.30;;;3.50;97.30;;;;;;5114727;28;20040;-78
2023/03/08 10:48:29;;;;;;;11.43;4.97;;;3.50;97.10;;;;;;5116149;28;20082;-77
2023/03/08 10:51:04;;;;;;;8.25;4.55;;;3.50;96.90;;;;;;5115001;28;20491;-77
2023/03/08 10:53:36;;;;;;;8.95;3.97;;;3.60;96.70;;;;;;5114833;28;20091;-77
2023/03/08 10:56:48;;;;;;;11.05;5.38;;;3.60;96.80;;;;;;5114939;28;20020;-78
2023/03/08 10:59:22;;;;;;;9.18;4.78;;;3.60;96.30;;;;;;5105345;28;20025;-78
2023/03/08 11:01:54;;;;;;;10.60;4.03;;;3.60;95.90;;;;;;5115826;28;20030;-77
2023/03/08 11:04:24;;;;;;;7.82;3.72;;;3.60;96.60;;;;;;5114759;28;20024;-77
2023/03/08 11:06:50;;;;;;;12.23;4.93;;;3.60;96.60;;;;;;5114716;28;20051;-77
2023/03/08 11:09:26;;;;;;;9.55;4.38;;;3.50;96.30;;;;;;5114275;28;20344;-77
2023/03/08 11:11:53;;;;;;;14.05;6.38;;;3.60;96.30;;;;;;5114575;28;20410;-77
2023/03/08 11:14:19;;;;;;;13.18;5.47;;;3.60;96.30;;;;;;5113315;28;20028;-77
2023/03/08 11:16:52;;;;;;;13.50;5.22;;;3.60;95.90;;;;;;5097608;28;20554;-77
2023/03/08 11:19:59;;;;;;;13.43;5.53;;;3.50;96.30;;;;;;5114478;28;20028;-78
2023/03/08 11:22:25;;;;;;;9.68;4.35;;;3.60;96.20;;;;;;5115480;28;20020;-77
2023/03/08 11:25:28;;;;;;;11.98;4.93;;;3.60;96.30;;;;;;5115239;28;20083;-75
2023/03/08 11:28:08;;;;;;;;;;;3.60;96.40;;;;;;5115679;28;20024;-78
2023/03/08 11:31:04;;;;;;;10.57;5.03;;;3.60;96.10;;;;;;5115280;28;19907;-78
2023/03/08 11:33:58;;;;;;;10.43;4.30;;;3.50;96.00;;;;;;5115140;28;20032;-80
2023/03/08 11:36:29;;;;;;;9.23;4.22;;;3.50;95.60;;;;;;5115167;28;20079;-78
2023/03/08 11:39:21;;;;;;;10.70;4.47;;;3.50;95.50;;;;;;5114814;28;20100;-75
2023/03/08 11:41:52;;;;;;;7.80;4.10;;;3.50;95.80;;;;;;5104014;28;20086;-77
2023/03/08 11:44:21;;;;;;;9.33;4.90;;;3.50;95.80;;;;;;5114937;28;20027;-76
2023/03/08 11:47:18;;;;;;;9.15;4.07;;;3.50;95.70;;;;;;5114891;28;20032;-78
2023/03/08 11:49:58;;;;;;;6.88;3.22;;;3.50;95.50;;;;;;5044220;28;20032;-78
2023/03/08 11:52:42;;;;;;;6.35;3.33;;;3.50;95.40;;;;;;5114958;28;20023;-75
2023/03/08 11:55:33;;;;;;;9.32;4.25;;;3.60;95.80;;;;;;5113958;28;20054;-76
2023/03/08 11:58:43;;;;;;;7.55;3.65;;;3.70;95.80;;;;;;5114457;28;20451;-79
2023/03/08 12:01:22;;;;;;;6.20;3.60;;;3.80;95.90;;;;;;5114596;28;20025;-77
2023/03/08 12:03:55;;;;;;;6.45;2.80;;;3.80;95.10;;;;;;5113641;28;20044;-77
2023/03/08 12:06:29;;;;;;;7.20;3.00;;;3.80;95.50;;;;;;5114553;28;20058;-78
2023/03/08 12:09:11;;;;;;;9.13;3.78;;;3.90;95.40;;;;;;5114407;28;20020;-78
2023/03/08 12:11:57;;;;;;;6.88;3.28;;;3.80;95.20;;;;;;5114629;28;20087;-78
2023/03/08 12:14:29;;;;;;;7.40;3.28;;;3.80;95.10;;;;;;5096217;28;20055;-77
2023/03/08 12:17:00;;;;;;;7.40;3.33;;;3.80;95.10;;;;;;5114358;28;20095;-78
2023/03/08 12:19:41;;;;;;;8.27;3.78;;;3.80;95.30;;;;;;5113234;28;20032;-78
2023/03/08 12:22:17;;;;;;;7.82;3.83;;;3.80;95.20;;;;;;5114217;28;20035;-79
2023/03/08 12:24:59;;;;;;;8.15;3.88;;;3.90;95.20;;;;;;5114146;28;20032;-78
2023/03/08 12:27:29;;;;;;;7.68;3.47;;;3.90;95.30;;;;;;5114316;28;20111;-76
2023/03/08 12:30:10;;;;;;;6.85;3.30;;;3.90;95.50;;;;;;5114088;28;20083;-75
2023/03/08 12:32:37;;;;;;;7.93;3.55;;;3.90;95.40;;;;;;5113149;28;20028;-77
2023/03/08 12:35:23;;;;;;;6.40;2.67;;;4.00;95.10;;;;;;5114042;28;20020;-78
2023/03/08 12:38:18;;;;;;;6.43;3.33;;;4.00;95.00;;;;;;5113865;28;20487;-79
2023/03/08 12:40:49;;;;;;;7.82;3.65;;;4.00;94.90;;;;;;5114059;28;20043;-77
2023/03/08 12:43:24;;;;;;;7.40;2.88;;;4.00;94.80;;;;;;5113935;28;20087;-78
2023/03/08 12:45:59;;;;;;;10.88;4.05;;;4.00;94.90;;;;;;5113812;28;20053;-78
2023/03/08 12:48:34;;;;;;;9.30;3.47;;;4.00;94.90;;;;;;5112769;28;20031;-78
2023/03/08 12:51:12;;;;;;;7.28;3.30;;;4.00;94.90;;;;;;5113960;28;20032;-78
2023/03/08 12:53:43;;;;;;;6.72;3.08;;;4.10;94.30;;;;;;5113688;28;20115;-78
2023/03/08 12:56:08;;;;;;;6.93;2.95;;;4.10;94.40;;;;;;5112765;28;20030;-78
2023/03/08 12:58:55;;;;;;;6.28;2.78;;;4.10;94.20;;;;;;5113705;28;20043;-79
2023/03/08 13:01:33;;;;;;;8.00;3.72;;;4.10;94.40;;;;;;5113747;28;20041;-79
2023/03/08 13:03:59;;;;;;;7.40;3.05;;;4.10;94.10;;;;;;5113715;28;20032;-79
2023/03/08 13:06:24;;;;;;;9.40;3.80;;;4.10;94.20;;;;;;5113723;28;20032;-78
2023/03/08 13:09:22;;;;;;;8.35;3.88;;;4.10;94.20;;;;;;5112776;28;20040;-78
2023/03/08 13:12:00;;;;;;;6.88;3.08;;;4.10;94.20;;;;;;5080380;28;20115;-78